Time;durP1;ratioP1;P1;durP2;ratioP2;P2;SDS_P1;SDS_P2;PMS_P1;PMS_P2;Temp;Humidity;BMP_temperature;BMP_pressure;BME280_temperature;BME280_humidity;BME280_pressure;Samples;Min_cycle;Max_cycle;Signal;HPM_P1;HPM_P2
2024/04/21 00:01:45;;;;;;;;;;;4.20;99.90;;;7.81;100.00;101040.41;5367671;26;19926;-81
2024/04/21 00:04:13;;;;;;;;;;;4.30;99.90;;;8.05;100.00;101042.81;5327064;26;20024;-83
2024/04/21 00:06:41;;;;;;;;;;;4.30;99.90;;;8.00;100.00;101036.28;5340152;26;19938;-83
2024/04/21 00:09:08;;;;;;;;;;;4.30;99.90;;;7.71;100.00;101049.72;5362316;26;20000;-82
2024/04/21 00:11:35;;;;;;;;;;;4.30;99.90;;;7.29;100.00;100997.75;5343649;26;19926;-80
2024/04/21 00:14:02;;;;;;;;;;;4.40;99.90;;;7.45;100.00;101004.03;5349962;26;20358;-82
2024/04/21 00:16:30;;;;;;;;;;;4.40;99.90;;;7.59;100.00;101041.19;5366152;26;19937;-82
2024/04/21 00:18:58;;;;;;;;;;;4.50;99.90;;;7.38;100.00;101022.94;5353834;26;19938;-81
2024/04/21 00:21:25;;;;;;;;;;;4.50;99.90;;;7.57;100.00;101018.81;5369037;26;19958;-81
2024/04/21 00:23:52;;;;;;;;;;;4.50;99.90;;;7.44;100.00;101051.22;5338857;26;20350;-83
2024/04/21 00:26:19;;;;;;;;;;;4.50;99.90;;;7.34;100.00;101060.44;5355276;26;19994;-83
2024/04/21 00:28:49;;;;;;;;;;;4.50;99.90;;;7.30;100.00;101004.03;5357054;26;19926;-81
2024/04/21 00:31:17;;;;;;;;;;;4.50;99.90;;;7.55;100.00;101061.59;5352440;26;19934;-82
2024/04/21 00:33:44;;;;;;;;;;;4.50;99.90;;;7.38;100.00;101019.38;5355664;26;20366;-81
2024/04/21 00:36:11;;;;;;;;;;;4.50;99.90;;;7.44;100.00;101043.91;5327554;26;20374;-81
2024/04/21 00:38:38;;;;;;;;;;;4.50;99.90;;;7.22;100.00;101050.22;5322690;26;19926;-83
2024/04/21 00:41:06;;;;;;;;;;;4.40;99.90;;;7.14;100.00;101049.28;5341201;26;19926;-83
2024/04/21 00:43:33;;;;;;;;;;;4.40;99.90;;;7.24;100.00;101050.88;5361912;26;19934;-83
2024/04/21 00:46:02;;;;;;;;;;;4.40;99.90;;;7.00;100.00;101044.66;5390940;26;19928;-82
2024/04/21 00:48:31;;;;;;;;;;;4.30;99.90;;;7.04;100.00;101049.56;5354281;26;19926;-83
2024/04/21 00:50:59;;;;;;;;;;;4.30;99.90;;;7.07;100.00;101052.91;5322792;26;19996;-83
2024/04/21 00:53:27;;;;;;;;;;;4.30;99.90;;;6.88;100.00;101018.00;5321038;26;19934;-81
2024/04/21 00:55:56;;;;;;;;;;;4.20;99.90;;;7.25;100.00;101069.72;5337271;26;19966;-80
2024/04/21 00:58:24;;;;;;;;;;;4.20;99.90;;;7.01;100.00;101032.78;5403887;26;19926;-83
2024/04/21 01:00:52;;;;;;;;;;;4.20;99.90;;;7.07;100.00;101025.78;5344825;26;19927;-81
2024/04/21 01:03:20;;;;;;;;;;;4.20;99.90;;;7.07;100.00;101036.66;5355014;26;19937;-81
2024/04/21 01:05:46;;;;;;;;;;;4.20;99.90;;;7.15;100.00;101063.69;5343305;26;19926;-81
2024/04/21 01:08:12;;;;;;;;;;;4.20;99.90;;;6.86;100.00;101025.47;5327976;26;20403;-82
2024/04/21 01:10:40;;;;;;;;;;;4.20;99.90;;;6.95;100.00;101049.81;5372642;26;19978;-83
2024/04/21 01:13:11;;;;;;;;;;;4.20;99.90;;;6.98;100.00;101061.16;5345304;26;19926;-82
2024/04/21 01:15:38;;;;;;;;;;;4.20;99.90;;;7.19;100.00;101079.44;5340304;26;19926;-82
2024/04/21 01:18:07;;;;;;;;;;;4.10;99.90;;;6.75;100.00;101039.44;5333583;26;19933;-82
2024/04/21 01:20:35;;;;;;;;;;;4.10;99.90;;;6.98;100.00;101076.56;5342274;26;19934;-82
2024/04/21 01:23:03;;;;;;;;;;;4.10;99.90;;;7.07;100.00;101075.50;5374590;26;20439;-82
2024/04/21 01:25:31;;;;;;;;;;;4.00;99.90;;;6.93;100.00;101085.28;5363761;26;19996;-82
2024/04/21 01:28:00;;;;;;;;;;;4.00;99.90;;;6.85;100.00;101074.47;5373794;26;19941;-83
2024/04/21 01:30:27;;;;;;;;;;;3.90;99.90;;;6.88;100.00;101077.66;5374160;26;19926;-82
2024/04/21 01:32:55;;;;;;;;;;;3.90;99.90;;;6.85;100.00;101069.03;5371379;26;19938;-81
2024/04/21 01:35:23;;;;;;;;;;;3.80;99.90;;;6.87;100.00;101075.13;5335657;26;19926;-80
2024/04/21 01:37:51;;;;;;;;;;;3.80;99.90;;;6.97;100.00;101045.91;5356595;26;20472;-80
2024/04/21 01:40:18;;;;;;;;;;;3.70;99.90;;;6.54;100.00;101011.16;5337296;26;19925;-79
2024/04/21 01:42:45;;;;;;;;;;;3.60;99.90;;;6.60;100.00;101025.84;5358119;26;19933;-80
2024/04/21 01:45:12;;;;;;;;;;;3.60;99.90;;;6.91;100.00;101088.16;5381186;26;20370;-79
2024/04/21 01:47:40;;;;;;;;;;;3.50;99.90;;;6.74;100.00;101084.72;5380471;26;19926;-80
2024/04/21 01:50:10;;;;;;;;;;;3.50;99.90;;;6.35;100.00;101041.44;5344121;26;19933;-80
2024/04/21 01:52:37;;;;;;;;;;;3.40;99.90;;;6.79;100.00;101061.63;5316881;26;19957;-80
2024/04/21 01:55:04;;;;;;;;;;;3.30;99.90;;;6.39;100.00;101016.53;5325821;26;19926;-81
2024/04/21 01:57:30;;;;;;;;;;;3.20;99.90;;;6.85;100.00;101075.31;5366481;26;19957;-80
2024/04/21 01:59:58;;;;;;;;;;;3.10;99.90;;;6.66;100.00;101078.50;5363647;26;19940;-80
2024/04/21 02:02:26;;;;;;;;;;;3.10;99.90;;;6.38;100.00;101071.75;5326051;26;19954;-81
2024/04/21 02:04:52;;;;;;;;;;;3.00;99.90;;;6.28;100.00;101071.97;5334256;26;19926;-82
2024/04/21 02:07:19;;;;;;;;;;;3.00;99.90;;;6.64;100.00;101085.97;5342687;26;20666;-82
2024/04/21 02:09:46;;;;;;;;;;;3.00;99.90;;;6.30;100.00;101041.97;5394688;26;19958;-81
2024/04/21 02:12:13;;;;;;;;;;;2.90;99.90;;;6.29;100.00;101072.81;5336069;26;19997;-81
2024/04/21 02:14:41;;;;;;;;;;;2.90;99.90;;;6.43;100.00;101076.63;5344029;26;20365;-81
2024/04/21 02:17:07;;;;;;;;;;;2.80;99.90;;;6.23;100.00;101058.09;5377555;26;19926;-82
2024/04/21 02:19:34;;;;;;;;;;;2.70;99.90;;;6.16;100.00;101062.53;5332482;26;20267;-79
2024/04/21 02:22:01;;;;;;;;;;;2.60;99.90;;;5.91;100.00;101070.75;5337483;26;19977;-81
2024/04/21 02:24:39;;;;;;;;;;;2.60;99.90;;;5.74;100.00;101051.03;5337018;26;20469;-80
2024/04/21 02:27:05;;;;;;;;;;;2.50;99.90;;;5.51;100.00;101013.06;5346386;26;19934;-81
2024/04/21 02:29:32;;;;;;;;;;;2.40;99.90;;;5.56;100.00;101038.56;5330116;26;19926;-80
2024/04/21 02:31:59;;;;;;;;;;;2.40;99.90;;;5.42;100.00;101074.47;5396450;26;20370;-80
2024/04/21 02:34:25;;;;;;;;;;;2.30;99.90;;;5.61;100.00;101086.75;5357684;26;19933;-80
2024/04/21 02:36:52;;;;;;;;;;;2.20;99.90;;;5.16;100.00;101054.72;5323870;26;19933;-80
2024/04/21 02:39:19;;;;;;;;;;;2.20;99.90;;;5.25;100.00;101085.31;5349680;26;20262;-80
2024/04/21 02:41:44;;;;;;;;;;;2.20;99.90;;;5.22;100.00;101095.63;5316018;26;19935;-80
2024/04/21 02:44:11;;;;;;;;;;;2.10;99.90;;;5.01;100.00;101073.47;5343278;26;19933;-80
2024/04/21 02:46:37;;;;;;;;;;;2.10;99.90;;;5.22;100.00;101093.75;5327778;26;19926;-81
2024/04/21 02:49:05;;;;;;;;;;;2.00;99.90;;;5.16;100.00;101076.34;5329637;26;19949;-80
2024/04/21 02:51:32;;;;;;;;;;;2.00;99.90;;;4.96;100.00;101086.69;5322553;26;20310;-81
2024/04/21 02:54:00;;;;;;;;;;;2.00;99.90;;;4.74;100.00;101045.78;5341050;26;19926;-81
2024/04/21 02:56:27;;;;;;;;;;;1.90;99.90;;;4.93;100.00;101087.00;5384875;26;19926;-80
2024/04/21 02:58:54;;;;;;;;;;;1.90;99.90;;;4.69;100.00;101083.28;5346026;26;19926;-81
2024/04/21 03:01:23;;;;;;;;;;;1.90;99.90;;;4.91;100.00;101097.16;5383142;26;19989;-81
2024/04/21 03:03:49;;;;;;;;;;;1.90;99.90;;;4.88;100.00;101109.16;5335744;26;19957;-80
2024/04/21 03:06:17;;;;;;;;;;;1.80;99.90;;;4.65;100.00;101108.97;5342783;26;19926;-82
2024/04/21 03:08:45;;;;;;;;;;;1.80;99.90;;;4.80;100.00;101121.84;5351939;26;19969;-81
2024/04/21 03:11:14;;;;;;;;;;;1.80;99.90;;;4.75;100.00;101125.03;5342807;26;20388;-83
2024/04/21 03:13:41;;;;;;;;;;;1.80;99.90;;;4.84;100.00;101129.41;5363833;26;19927;-81
2024/04/21 03:16:10;;;;;;;;;;;1.80;99.90;;;4.77;100.00;101119.44;5368423;26;20063;-81
2024/04/21 03:18:39;;;;;;;;;;;1.80;99.90;;;4.59;100.00;101121.28;5341287;26;19935;-81
2024/04/21 03:21:06;;;;;;;;;;;1.70;99.90;;;4.16;100.00;101063.78;5352476;26;19930;-82
2024/04/21 03:23:32;;;;;;;;;;;1.60;99.90;;;4.47;100.00;101122.59;5347993;26;19934;-82
2024/04/21 03:26:00;;;;;;;;;;;1.60;99.90;;;4.02;100.00;101065.25;5343614;26;19958;-81
2024/04/21 03:28:26;;;;;;;;;;;1.50;99.90;;;4.27;100.00;101124.75;5389913;26;19933;-82
2024/04/21 03:31:02;;;;;;;;;;;1.50;99.90;;;4.27;100.00;101127.44;5322566;26;19926;-81
2024/04/21 03:33:30;;;;;;;;;;;1.50;99.90;;;4.20;100.00;101145.28;5376382;26;19938;-84
2024/04/21 03:36:07;;;;;;;;;;;1.40;99.90;;;3.94;100.00;101111.09;5380136;26;19996;-82
2024/04/21 03:38:35;;;;;;;;;;;1.40;99.90;;;3.85;100.00;101094.88;5348971;26;19990;-82
2024/04/21 03:41:07;;;;;;;;;;;1.30;99.90;;;4.09;100.00;101119.41;5342791;26;19934;-80
2024/04/21 03:43:33;;;;;;;;;;;1.30;99.90;;;3.91;100.00;101109.56;5358939;26;20277;-81
2024/04/21 03:46:01;;;;;;;;;;;1.20;99.90;;;4.16;100.00;101136.69;5350304;26;19988;-81
2024/04/21 03:48:27;;;;;;;;;;;1.20;99.90;;;3.92;100.00;101127.47;5334662;26;20258;-81
2024/04/21 03:50:54;;;;;;;;;;;1.20;99.90;;;3.86;100.00;101118.16;5354108;26;19934;-81
2024/04/21 03:53:22;;;;;;;;;;;1.20;99.90;;;4.06;100.00;101158.41;5344800;26;19927;-80
2024/04/21 03:55:49;;;;;;;;;;;1.20;99.90;;;4.14;100.00;101160.31;5317616;26;19926;-79
2024/04/21 03:58:16;;;;;;;;;;;1.10;99.90;;;4.07;100.00;101162.81;5326622;26;19926;-80
2024/04/21 04:00:43;;;;;;;;;;;1.10;99.90;;;4.11;100.00;101164.16;5353801;26;19934;-80
2024/04/21 04:03:09;;;;;;;;;;;1.00;99.90;;;4.03;100.00;101129.03;5345988;26;19998;-79
2024/04/21 04:05:37;;;;;;;;;;;1.00;99.90;;;3.78;100.00;101123.50;5379583;26;19927;-80
2024/04/21 04:08:04;;;;;;;;;;;1.00;99.90;;;4.05;100.00;101180.16;5349675;26;19933;-79
2024/04/21 04:10:31;;;;;;;;;;;0.90;99.90;;;4.18;100.00;101177.88;5343915;26;19926;-79
2024/04/21 04:12:58;;;;;;;;;;;0.90;99.90;;;4.10;100.00;101162.47;5316772;26;19927;-80
2024/04/21 04:15:24;;;;;;;;;;;0.90;99.90;;;4.18;100.00;101150.88;5316321;26;19950;-79
2024/04/21 04:17:51;;;;;;;;;;;0.70;99.90;;;3.86;100.00;101131.66;5385451;26;20562;-79
2024/04/21 04:20:18;;;;;;;;;;;0.80;99.90;;;4.20;100.00;101186.66;5315981;26;19932;-79
2024/04/21 04:22:44;;;;;;;;;;;0.70;99.90;;;4.12;100.00;101198.28;5324107;26;19930;-79
2024/04/21 04:25:10;;;;;;;;;;;0.70;99.90;;;4.14;100.00;101177.34;5318163;26;19926;-79
2024/04/21 04:27:36;;;;;;;;;;;0.70;99.90;;;4.22;100.00;101172.97;5325970;26;20370;-80
2024/04/21 04:30:04;;;;;;;;;;;0.70;99.90;;;4.31;100.00;101196.34;5365006;26;19953;-81
2024/04/21 04:32:30;;;;;;;;;;;0.70;99.90;;;4.31;100.00;101163.94;5328338;26;19926;-80
2024/04/21 04:34:57;;;;;;;;;;;0.60;99.90;;;4.38;100.00;101215.47;5375382;26;19926;-79
2024/04/21 04:37:24;;;;;;;;;;;0.60;99.90;;;4.23;100.00;101194.44;5336125;26;19938;-80
2024/04/21 04:39:50;;;;;;;;;;;0.60;99.90;;;4.24;100.00;101187.16;5353329;26;19926;-80
2024/04/21 04:42:17;;;;;;;;;;;0.60;99.90;;;4.17;100.00;101187.00;5350145;26;19926;-80
2024/04/21 04:44:44;;;;;;;;;;;0.60;99.90;;;4.20;100.00;101229.03;5373443;26;19996;-80
2024/04/21 04:47:11;;;;;;;;;;;0.70;99.90;;;4.01;100.00;101230.97;5324623;26;19938;-79
2024/04/21 04:49:38;;;;;;;;;;;0.70;99.90;;;3.79;100.00;101186.41;5344602;26;20209;-79
2024/04/21 04:52:05;;;;;;;;;;;0.80;99.90;;;4.06;100.00;101233.16;5320084;26;19926;-80
2024/04/21 04:54:33;;;;;;;;;;;0.90;99.90;;;4.13;100.00;101243.19;5348572;26;20398;-81
2024/04/21 04:57:00;;;;;;;;;;;0.90;99.90;;;4.45;100.00;101205.69;5342439;26;19934;-81
2024/04/21 04:59:27;;;;;;;;;;;1.00;99.90;;;4.54;100.00;101203.88;5349442;26;19958;-82
2024/04/21 05:01:56;;;;;;;;;;;0.90;99.90;;;4.39;100.00;101217.97;5317683;26;19999;-82
2024/04/21 05:04:24;;;;;;;;;;;1.00;99.90;;;4.23;100.00;101212.50;5379711;26;19926;-80
2024/04/21 05:06:51;;;;;;;;;;;1.00;99.90;;;4.47;100.00;101192.88;5316286;26;19954;-78
2024/04/21 05:09:18;;;;;;;;;;;1.00;99.90;;;4.69;100.00;101234.66;5358869;26;20266;-84
2024/04/21 05:11:46;;;;;;;;;;;1.00;99.90;;;4.51;100.00;101252.81;5319074;26;19962;-83
2024/04/21 05:14:15;;;;;;;;;;;1.10;99.90;;;4.48;100.00;101226.97;5353496;26;19933;-85
2024/04/21 05:16:45;;;;;;;;;;;1.20;99.90;;;4.83;100.00;101254.81;5394028;26;19927;-90
2024/04/21 05:19:14;;;;;;;;;;;1.20;99.90;;;5.23;100.00;101268.59;5372203;26;19926;-86
2024/04/21 05:21:41;;;;;;;;;;;1.30;99.90;;;4.80;100.00;101235.38;5362527;26;19995;-87
2024/04/21 05:24:07;;;;;;;;;;;1.30;99.90;;;4.60;100.00;101268.06;5360994;26;19933;-79
2024/04/21 05:26:33;;;;;;;;;;;1.40;99.90;;;5.29;100.00;101284.16;5339142;26;19950;-83
2024/04/21 05:29:00;;;;;;;;;;;1.50;99.90;;;5.17;100.00;101280.94;5351955;26;19940;-87
2024/04/21 05:31:28;;;;;;;;;;;1.50;99.90;;;5.31;100.00;101274.03;5343997;26;20333;-86
2024/04/21 05:33:54;;;;;;;;;;;1.60;99.90;;;5.19;100.00;101291.59;5343723;26;19925;-83
2024/04/21 05:36:20;;;;;;;;;;;1.70;99.90;;;5.12;100.00;101255.41;5343655;26;19926;-84
2024/04/21 05:38:46;;;;;;;;;;;1.70;99.90;;;5.08;100.00;101292.75;5360072;26;20281;-84
2024/04/21 05:41:13;;;;;;;;;;;1.80;99.90;;;5.36;100.00;101278.94;5342488;26;19949;-79
2024/04/21 05:43:39;;;;;;;;;;;1.90;99.90;;;4.92;100.00;101238.63;5328223;26;19934;-79
2024/04/21 05:46:05;;;;;;;;;;;1.90;99.90;;;5.59;100.00;101253.91;5316485;26;19927;-80
2024/04/21 05:48:31;;;;;;;;;;;2.00;99.90;;;5.74;100.00;101302.81;5326927;26;20319;-80
2024/04/21 05:51:00;;;;;;;;;;;2.10;99.90;;;5.66;100.00;101229.72;5384872;26;19941;-78
2024/04/21 05:53:29;;;;;;;;;;;2.30;99.90;;;5.67;100.00;101269.31;5315043;26;19982;-81
2024/04/21 05:55:59;;;;;;;;;;;2.40;99.90;;;6.27;100.00;101297.91;5313835;26;19933;-81
2024/04/21 05:58:25;;;;;;;;;;;2.50;99.90;;;6.61;100.00;101285.97;5313258;26;19954;-80
2024/04/21 06:00:51;;;;;;;;;;;2.60;99.90;;;5.87;100.00;101307.72;5341231;26;20266;-81
2024/04/21 06:03:18;;;;;;;;;;;2.80;99.90;;;6.08;100.00;101312.66;5314474;26;19926;-82
2024/04/21 06:05:45;;;;;;;;;;;2.80;99.90;;;6.16;100.00;101312.66;5370527;26;19926;-81
2024/04/21 06:08:11;;;;;;;;;;;2.80;99.90;;;6.10;100.00;101288.97;5324671;26;19996;-81
2024/04/21 06:10:38;;;;;;;;;;;2.90;99.90;;;6.37;100.00;101321.25;5347606;26;20816;-81
2024/04/21 06:13:04;;;;;;;;;;;3.00;99.90;;;6.24;100.00;101283.84;5379255;26;20370;-79
2024/04/21 06:15:32;;;;;;;;;;;3.10;99.90;;;7.12;100.00;101329.97;5358701;26;19939;-82
2024/04/21 06:17:58;;;;;;;;;;;3.20;99.90;;;6.98;98.64;101296.31;5327584;26;20298;-81
2024/04/21 06:20:26;;;;;;;;;;;3.40;99.90;;;7.42;95.52;101338.28;5356747;26;19933;-82
2024/04/21 06:22:53;;;;;;;;;;;3.60;99.90;;;7.73;94.55;101337.44;5355281;26;20091;-81
2024/04/21 06:25:20;;;;;;;;;;;3.70;99.90;;;7.66;91.82;101301.16;5368227;26;20003;-80
2024/04/21 06:27:48;;;;;;;;;;;3.90;99.90;;;8.15;88.84;101348.81;5336244;26;19933;-79
2024/04/21 06:30:16;;;;;;;;;;;4.00;99.90;;;8.35;89.00;101351.84;5315182;26;19934;-80
2024/04/21 06:32:43;;;;;;;;;;;4.20;99.90;;;8.26;86.42;101326.63;5315250;26;19933;-81
2024/04/21 06:35:10;;;;;;;;;;;4.40;99.90;;;8.62;84.73;101345.00;5351544;26;19973;-80
2024/04/21 06:37:38;;;;;;;;;;;4.50;99.90;;;8.44;84.16;101330.88;5350529;26;19926;-80
2024/04/21 06:40:06;;;;;;;;;;;4.60;99.90;;;9.00;83.74;101357.63;5330408;26;19926;-82
2024/04/21 06:42:34;;;;;;;;;;;4.80;99.90;;;8.87;85.25;101366.44;5334448;26;19935;-85
2024/04/21 06:45:01;;;;;;;;;;;5.00;99.90;;;9.14;85.46;101355.91;5364789;26;19932;-82
2024/04/21 06:47:28;;;;;;;;;;;5.10;99.90;;;9.15;83.04;101344.03;5352276;26;19936;-79
2024/04/21 06:49:55;;;;;;;;;;;5.30;99.90;;;9.42;80.70;101352.50;5316450;26;20370;-80
2024/04/21 06:52:21;;;;;;;;;;;5.40;99.90;;;9.38;78.59;101362.06;5330781;26;19927;-78
2024/04/21 06:54:47;;;;;;;;;;;5.50;99.90;;;9.66;77.80;101374.13;5362521;26;19972;-79
2024/04/21 06:57:14;;;;;;;;;;;5.60;99.90;;;9.36;76.40;101304.22;5355970;26;19937;-82
2024/04/21 06:59:45;;;;;;;;;;;5.70;99.90;;;10.10;77.03;101386.75;5394850;26;19973;-85
2024/04/21 07:02:13;;;;;;;;;;;5.90;99.90;;;9.68;75.77;101340.22;5348269;26;19927;-82
2024/04/21 07:04:40;;;;;;;;;;;6.10;99.90;;;9.91;77.21;101382.75;5356372;26;19978;-84
2024/04/21 07:07:08;;;;;;;;;;;6.10;99.90;;;10.39;76.86;101393.06;5356501;26;20503;-85
2024/04/21 07:09:40;;;;;;;;;;;6.30;99.90;;;9.79;76.24;101345.13;5383638;26;19934;-84
2024/04/21 07:12:08;;;;;;;;;;;6.30;99.90;;;10.04;75.00;101392.94;5350418;26;20337;-83
2024/04/21 07:14:34;;;;;;;;;;;6.40;99.90;;;10.21;74.20;101397.09;5354334;26;19926;-85
2024/04/21 07:17:01;;;;;;;;;;;6.40;99.90;;;10.26;72.78;101346.56;5360367;26;19937;-83
2024/04/21 07:19:28;;;;;;;;;;;6.50;99.90;;;10.65;72.98;101380.69;5347118;26;19930;-82
2024/04/21 07:21:57;;;;;;;;;;;6.60;99.90;;;10.88;70.93;101385.88;5368327;26;19926;-81
2024/04/21 07:24:24;;;;;;;;;;;6.80;99.90;;;11.16;68.69;101384.16;5346088;26;20378;-82
2024/04/21 07:26:52;;;;;;;;;;;6.90;99.90;;;10.86;66.65;101384.38;5320312;26;19926;-83
2024/04/21 07:29:18;;;;;;;;;;;7.00;99.90;;;10.78;65.65;101353.47;5352870;26;19926;-85
2024/04/21 07:31:46;;;;;;;;;;;7.00;99.90;;;11.34;65.32;101378.13;5373259;26;19926;-83
2024/04/21 07:34:12;;;;;;;;;;;7.20;99.90;;;11.58;64.90;101384.91;5331840;26;19933;-82
2024/04/21 07:36:38;;;;;;;;;;;7.40;99.90;;;11.37;61.62;101350.41;5334574;26;19933;-83
2024/04/21 07:39:06;;;;;;;;;;;7.50;99.90;;;11.10;61.77;101363.94;5353133;26;20262;-85
2024/04/21 07:41:34;;;;;;;;;;;7.40;99.90;;;10.97;61.05;101372.06;5326234;26;19926;-83
2024/04/21 07:44:01;;;;;;;;;;;7.40;99.90;;;11.43;58.55;101362.41;5326089;26;19933;-82
2024/04/21 07:46:28;;;;;;;;;;;7.70;99.90;;;11.57;60.09;101353.19;5339723;26;19933;-82
2024/04/21 07:48:54;;;;;;;;;;;7.90;99.90;;;11.68;58.78;101359.09;5351832;26;20376;-88
2024/04/21 07:51:21;;;;;;;;;;;8.00;99.90;;;11.47;56.45;101361.75;5342418;26;20385;-84
2024/04/21 07:53:49;;;;;;;;;;;8.00;99.90;;;11.19;56.28;101359.16;5356779;26;20351;-88
2024/04/21 07:56:19;;;;;;;;;;;7.80;99.90;;;11.13;56.05;101327.19;5322269;26;20382;-87
2024/04/21 07:58:50;;;;;;;;;;;7.80;99.90;;;11.44;54.13;101329.38;5353335;26;20000;-84
2024/04/21 08:01:22;;;;;;;;;;;7.90;99.90;;;11.80;54.00;101360.16;5349658;26;19926;-91
2024/04/21 08:03:50;;;;;;;;;;;8.00;99.90;;;12.20;54.73;101384.88;5348715;26;19955;-80
2024/04/21 08:06:17;;;;;;;;;;;8.20;99.90;;;12.31;54.75;101357.94;5357738;26;19941;-83
2024/04/21 08:08:44;;;;;;;;;;;8.40;99.90;;;12.80;53.33;101381.22;5363323;26;19926;-84
2024/04/21 08:11:11;;;;;;;;;;;8.70;99.90;;;12.46;49.14;101290.09;5342139;26;19927;-84
2024/04/21 08:13:37;;;;;;;;;;;8.80;99.90;;;13.04;48.65;101332.28;5387321;26;19926;-85
2024/04/21 08:16:04;;;;;;;;;;;9.00;99.90;;;13.02;48.46;101322.59;5363010;26;19926;-84
2024/04/21 08:18:31;;;;;;;;;;;9.10;99.90;;;13.02;48.20;101314.38;5362736;26;19970;-86
2024/04/21 08:20:59;;;;;;;;;;;9.40;99.90;;;12.92;46.91;101306.63;5359550;26;19933;-83
2024/04/21 08:23:28;;;;;;;;;;;9.30;99.90;;;12.11;46.85;101273.97;5363333;26;20176;-82
2024/04/21 08:25:59;;;;;;;;;;;9.10;99.90;;;12.46;48.40;101286.56;5364893;26;19933;-81
2024/04/21 08:28:26;;;;;;;;;;;9.10;99.90;;;12.51;48.20;101301.28;5315668;26;20367;-81
2024/04/21 08:30:53;;;;;;;;;;;9.20;99.90;;;12.86;49.25;101349.41;5365408;26;20349;-84
2024/04/21 08:33:21;;;;;;;;;;;9.50;99.90;;;12.94;46.72;101302.63;5340948;26;20422;-82
2024/04/21 08:36:15;;;;;;;;;;;9.40;99.90;;;13.79;44.99;101321.78;5368859;26;19934;-85
2024/04/21 08:38:42;;;;;;;;;;;9.60;99.90;;;13.36;47.06;101313.19;5391347;26;19933;-82
2024/04/21 08:41:13;;;;;;;;;;;9.80;99.90;;;13.44;45.29;101294.81;5362413;26;19933;-81
2024/04/21 08:43:41;;;;;;;;;;;10.00;99.90;;;13.70;43.64;101251.84;5315087;26;19941;-81
2024/04/21 08:46:11;;;;;;;;;;;10.20;99.90;;;14.06;45.45;101319.69;5323522;26;19927;-82
2024/04/21 08:48:39;;;;;;;;;;;10.30;99.90;;;14.21;44.81;101299.31;5391757;26;19954;-81
2024/04/21 08:51:07;;;;;;;;;;;10.80;99.90;;;14.35;42.53;101300.03;5355311;26;20325;-84
2024/04/21 08:53:33;;;;;;;;;;;10.70;98.60;;;14.68;40.92;101268.63;5333531;26;19932;-82
2024/04/21 08:56:07;;;;;;;;;;;11.00;97.30;;;14.88;41.89;101262.09;5376777;26;19970;-84
2024/04/21 08:58:34;;;;;;;;;;;11.20;97.30;;;12.87;42.08;101213.34;5343956;26;19954;-82
2024/04/21 09:01:01;;;;;;;;;;;10.40;95.60;;;13.01;43.27;101279.84;5393213;26;19934;-82
2024/04/21 09:03:28;;;;;;;;;;;10.00;97.60;;;13.62;41.55;101248.31;5338515;26;19996;-82
2024/04/21 09:05:59;;;;;;;;;;;9.90;95.70;;;13.17;39.67;101226.44;5355240;26;19996;-82
2024/04/21 09:08:26;;;;;;;;;;;10.00;94.50;;;12.91;41.34;101261.13;5341104;26;19927;-82
2024/04/21 09:10:54;;;;;;;;;;;9.60;95.00;;;13.07;41.57;101246.09;5339741;26;19954;-82
2024/04/21 09:13:21;;;;;;;;;;;9.70;96.30;;;13.22;40.35;101254.00;5396618;26;19925;-82
2024/04/21 09:15:49;;;;;;;;;;;9.60;94.00;;;13.86;40.63;101288.81;5313208;26;19926;-82
2024/04/21 09:18:16;;;;;;;;;;;10.00;95.80;;;14.35;40.87;101286.28;5373677;26;19961;-84
2024/04/21 09:20:45;;;;;;;;;;;10.40;95.90;;;14.57;40.62;101299.56;5332819;26;20336;-82
2024/04/21 09:23:12;;;;;;;;;;;10.60;96.40;;;13.57;40.40;101247.28;5324960;26;19930;-82
2024/04/21 09:25:39;;;;;;;;;;;10.30;94.60;;;13.16;40.78;101252.16;5340117;26;19938;-81
2024/04/21 09:28:06;;;;;;;;;;;10.10;94.10;;;12.42;40.80;101242.34;5315783;26;19926;-81
2024/04/21 09:30:33;;;;;;;;;;;9.50;93.00;;;12.91;40.14;101261.13;5357108;26;19926;-83
2024/04/21 09:33:01;;;;;;;;;;;9.40;93.90;;;13.65;40.58;101294.47;5350298;26;20335;-83
2024/04/21 09:35:28;;;;;;;;;;;9.70;94.70;;;13.88;39.77;101284.81;5338955;26;19991;-82
2024/04/21 09:37:55;;;;;;;;;;;10.10;93.80;;;14.61;40.06;101303.56;5344079;26;19926;-83
2024/04/21 09:40:23;;;;;;;;;;;10.40;94.70;;;14.08;41.36;101278.31;5331902;26;19926;-82
2024/04/21 09:42:52;;;;;;;;;;;10.60;96.10;;;13.81;41.19;101289.50;5374086;26;19926;-83
2024/04/21 09:45:19;;;;;;;;;;;10.40;95.70;;;13.81;41.18;101314.19;5360614;26;19934;-82
2024/04/21 09:47:47;;;;;;;;;;;10.20;95.60;;;13.97;40.68;101310.06;5393972;26;19938;-84
2024/04/21 09:50:15;;;;;;;;;;;10.00;95.40;;;13.86;40.60;101288.81;5313785;26;19926;-83
2024/04/21 09:52:47;;;;;;;;;;;10.10;95.60;;;13.36;39.34;101274.81;5353774;26;19926;-80
2024/04/21 09:55:13;;;;;;;;;;;9.90;92.60;;;14.87;39.30;101307.94;5333627;26;19938;-82
2024/04/21 09:57:43;;;;;;;;;;;10.70;94.90;;;15.14;39.76;101304.84;5343783;26;19926;-82
2024/04/21 10:00:14;;;;;;;;;;;11.50;94.20;;;14.60;38.66;101293.63;5328240;26;19927;-84
2024/04/21 10:02:52;;;;;;;;;;;11.40;92.40;;;13.83;40.03;101287.38;5322602;26;19934;-83
2024/04/21 10:05:24;;;;;;;;;;;10.90;92.80;;;12.05;40.01;101229.16;5322286;26;19965;-83
2024/04/21 10:07:51;;;;;;;;;;;9.90;92.30;;;12.15;41.17;101260.72;5318036;26;19926;-82
2024/04/21 10:10:24;;;;;;;;;;;9.30;93.10;;;12.87;40.83;101311.91;5322547;26;19997;-84
2024/04/21 10:12:51;;;;;;;;;;;9.40;94.00;;;13.81;41.10;101358.06;5344331;26;19938;-83
2024/04/21 10:15:21;;;;;;;;;;;9.70;95.50;;;13.72;42.35;101337.44;5368527;26;19933;-83
2024/04/21 10:17:55;;;;;;;;;;;10.10;96.10;;;13.58;39.82;101322.97;5334624;26;19933;-83
2024/04/21 10:20:32;;;;;;;;;;;10.10;93.40;;;14.29;40.08;101342.91;5380479;26;19926;-82
2024/04/21 10:23:10;;;;;;;;;;;10.40;93.60;;;14.65;40.45;101376.16;5360611;26;19938;-81
2024/04/21 10:25:40;;;;;;;;;;;10.80;95.30;;;15.42;38.85;101368.56;5320116;26;20405;-84
2024/04/21 10:28:27;;;;;;;;;;;11.30;92.70;;;16.24;37.90;101334.13;5351151;26;19942;-82
2024/04/21 10:31:07;;;;;;;;;;;;;;;17.19;36.11;101358.84;5372918;26;19933;-81
2024/04/21 10:33:35;;;;;;;;;;;;;;;17.39;34.59;101328.09;5325398;26;19927;-82
2024/04/21 10:36:02;;;;;;;;;;;;;;;20.03;33.21;101383.56;5316566;26;20377;-83
2024/04/21 10:38:30;;;;;;;;;;;;;;;22.12;31.74;101392.66;5330905;26;19934;-82
2024/04/21 10:40:57;;;;;;;;;;;;;;;21.97;30.31;101341.53;5325971;26;19953;-84
2024/04/21 10:43:28;;;;;;;;;;;;;;;23.55;28.02;101341.66;5354019;26;19926;-83
2024/04/21 10:45:56;;;;;;;;;;;;;;;24.19;27.31;101313.06;5337614;26;20278;-82
2024/04/21 10:48:22;;;;;;;;;;;;;;;24.43;26.29;101285.25;5341295;26;19933;-82
2024/04/21 10:50:49;;;;;;;;;;;;;;;24.82;24.60;101259.13;5322049;26;19937;-82
2024/04/21 10:53:16;;;;;;;;;;;;;;;25.09;23.94;101237.31;5354034;26;19927;-81
2024/04/21 10:55:43;;;;;;;;;;;;;;;25.01;24.56;101249.97;5312801;26;19934;-83
2024/04/21 10:58:09;;;;;;;;;;;;;;;24.47;25.20;101247.28;5343499;26;20421;-83
2024/04/21 11:00:39;;;;;;;;;;;;;;;25.00;23.91;101225.97;5329210;26;19926;-79
2024/04/21 11:03:06;;;;;;;;;;;;;;;25.28;23.99;101248.47;5340607;26;19926;-81
2024/04/21 11:05:41;;;;;;;;;;;;;;;25.40;23.47;101246.00;5380682;26;19926;-82
2024/04/21 11:08:10;;;;;;;;;;;;;;;25.35;24.13;101237.72;5338495;26;19926;-81
2024/04/21 11:10:36;;;;;;;;;;;;;;;24.97;24.38;101232.16;5343432;26;19934;-82
2024/04/21 11:13:06;;;;;;;;;;;;;;;21.55;26.04;101099.13;5318938;26;19927;-83
2024/04/21 11:15:39;;;;;;;;;;;12.30;93.30;;;17.68;28.63;100993.41;5368558;26;19926;-83
2024/04/21 11:18:05;;;;;;;;;;;17.70;57.30;;;13.91;31.77;100948.91;5339014;26;19930;-81
2024/04/21 11:20:31;;;;;;;;;;;13.50;62.30;;;13.41;34.14;101002.00;5357359;26;20267;-81
2024/04/21 11:22:59;;;;;;;;;;;11.80;65.50;;;14.59;35.36;101119.00;5367541;26;19934;-84
2024/04/21 11:25:25;;;;;;;;;;;11.60;69.80;;;13.74;36.23;101144.22;5330594;26;19958;-83